sensor_id;sensor_type;location;lat;lon;timestamp;pressure;altitude;pressure_sealevel;temperature
67599;BMP280;62026;39.230;9.122;2023-07-29T00:02:03;100789.81;;;26.95
67599;BMP280;62026;39.230;9.122;2023-07-29T00:04:30;100796.28;;;27.02
67599;BMP280;62026;39.230;9.122;2023-07-29T00:06:56;100789.31;;;27.01
67599;BMP280;62026;39.230;9.122;2023-07-29T00:09:22;100782.06;;;27.05
67599;BMP280;62026;39.230;9.122;2023-07-29T00:11:48;100776.22;;;27.03
67599;BMP280;62026;39.230;9.122;2023-07-29T00:14:14;100775.91;;;26.96
67599;BMP280;62026;39.230;9.122;2023-07-29T00:16:40;100778.47;;;27.01
67599;BMP280;62026;39.230;9.122;2023-07-29T00:19:06;100774.69;;;26.85
67599;BMP280;62026;39.230;9.122;2023-07-29T00:21:32;100773.25;;;26.88
67599;BMP280;62026;39.230;9.122;2023-07-29T00:23:58;100765.25;;;26.82
67599;BMP280;62026;39.230;9.122;2023-07-29T00:26:25;100768.78;;;26.83
67599;BMP280;62026;39.230;9.122;2023-07-29T00:28:51;100763.06;;;26.76
67599;BMP280;62026;39.230;9.122;2023-07-29T00:31:17;100760.66;;;26.83
67599;BMP280;62026;39.230;9.122;2023-07-29T00:33:43;100754.75;;;26.81
67599;BMP280;62026;39.230;9.122;2023-07-29T00:36:09;100755.88;;;26.80
67599;BMP280;62026;39.230;9.122;2023-07-29T00:38:35;100753.78;;;26.86
67599;BMP280;62026;39.230;9.122;2023-07-29T00:41:03;100754.28;;;26.79
67599;BMP280;62026;39.230;9.122;2023-07-29T00:43:29;100764.19;;;26.75
67599;BMP280;62026;39.230;9.122;2023-07-29T00:45:55;100762.75;;;26.77
67599;BMP280;62026;39.230;9.122;2023-07-29T00:48:24;100764.81;;;26.80
67599;BMP280;62026;39.230;9.122;2023-07-29T00:50:51;100755.56;;;26.73
67599;BMP280;62026;39.230;9.122;2023-07-29T00:53:17;100753.06;;;26.68
67599;BMP280;62026;39.230;9.122;2023-07-29T00:55:43;100743.97;;;26.64
67599;BMP280;62026;39.230;9.122;2023-07-29T00:58:10;100756.72;;;26.72
67599;BMP280;62026;39.230;9.122;2023-07-29T01:00:37;100750.94;;;26.73
67599;BMP280;62026;39.230;9.122;2023-07-29T01:03:03;100740.59;;;26.67
67599;BMP280;62026;39.230;9.122;2023-07-29T01:05:39;100746.53;;;26.60
67599;BMP280;62026;39.230;9.122;2023-07-29T01:08:21;100740.63;;;26.50
67599;BMP280;62026;39.230;9.122;2023-07-29T01:11:30;100749.56;;;26.59
67599;BMP280;62026;39.230;9.122;2023-07-29T01:14:14;100747.34;;;26.61
67599;BMP280;62026;39.230;9.122;2023-07-29T01:16:52;100752.91;;;26.64
67599;BMP280;62026;39.230;9.122;2023-07-29T01:22:26;100749.25;;;26.52
67599;BMP280;62026;39.230;9.122;2023-07-29T01:24:52;100750.03;;;26.52
67599;BMP280;62026;39.230;9.122;2023-07-29T01:27:18;100752.09;;;26.64
67599;BMP280;62026;39.230;9.122;2023-07-29T01:29:44;100751.13;;;26.60
67599;BMP280;62026;39.230;9.122;2023-07-29T01:32:29;100735.22;;;26.58
67599;BMP280;62026;39.230;9.122;2023-07-29T01:35:21;100726.50;;;26.53
67599;BMP280;62026;39.230;9.122;2023-07-29T01:37:57;100721.84;;;26.53
67599;BMP280;62026;39.230;9.122;2023-07-29T01:40:27;100728.06;;;26.62
67599;BMP280;62026;39.230;9.122;2023-07-29T01:42:54;100726.47;;;26.61
67599;BMP280;62026;39.230;9.122;2023-07-29T01:45:24;100722.97;;;26.61
67599;BMP280;62026;39.230;9.122;2023-07-29T01:47:53;100727.69;;;26.72
67599;BMP280;62026;39.230;9.122;2023-07-29T01:50:21;100726.25;;;26.75
67599;BMP280;62026;39.230;9.122;2023-07-29T01:52:46;100725.63;;;26.78
67599;BMP280;62026;39.230;9.122;2023-07-29T01:55:12;100708.88;;;26.76
67599;BMP280;62026;39.230;9.122;2023-07-29T01:57:38;100717.63;;;26.73
67599;BMP280;62026;39.230;9.122;2023-07-29T02:00:05;100707.59;;;26.73
67599;BMP280;62026;39.230;9.122;2023-07-29T02:02:40;100713.50;;;26.75
67599;BMP280;62026;39.230;9.122;2023-07-29T02:05:06;100714.78;;;26.78
67599;BMP280;62026;39.230;9.122;2023-07-29T02:07:32;100723.34;;;26.80
67599;BMP280;62026;39.230;9.122;2023-07-29T02:09:58;100721.31;;;26.77
67599;BMP280;62026;39.230;9.122;2023-07-29T02:12:24;100719.41;;;26.77
67599;BMP280;62026;39.230;9.122;2023-07-29T02:14:50;100720.66;;;26.80
67599;BMP280;62026;39.230;9.122;2023-07-29T02:17:16;100713.19;;;26.77
67599;BMP280;62026;39.230;9.122;2023-07-29T02:19:42;100708.41;;;26.74
67599;BMP280;62026;39.230;9.122;2023-07-29T02:22:10;100707.94;;;26.72
67599;BMP280;62026;39.230;9.122;2023-07-29T02:24:36;100704.09;;;26.73
67599;BMP280;62026;39.230;9.122;2023-07-29T02:27:02;100696.44;;;26.75
67599;BMP280;62026;39.230;9.122;2023-07-29T02:29:29;100691.34;;;26.73
67599;BMP280;62026;39.230;9.122;2023-07-29T02:31:56;100681.53;;;26.69
67599;BMP280;62026;39.230;9.122;2023-07-29T02:34:22;100680.06;;;26.63
67599;BMP280;62026;39.230;9.122;2023-07-29T02:36:48;100682.63;;;26.68
67599;BMP280;62026;39.230;9.122;2023-07-29T02:39:14;100685.78;;;26.70
67599;BMP280;62026;39.230;9.122;2023-07-29T02:41:40;100680.38;;;26.70
67599;BMP280;62026;39.230;9.122;2023-07-29T02:44:06;100685.78;;;26.70
67599;BMP280;62026;39.230;9.122;2023-07-29T02:46:32;100692.81;;;26.71
67599;BMP280;62026;39.230;9.122;2023-07-29T02:48:58;100684.22;;;26.69
67599;BMP280;62026;39.230;9.122;2023-07-29T02:53:50;100675.09;;;26.73
67599;BMP280;62026;39.230;9.122;2023-07-29T02:56:16;100678.91;;;26.72
67599;BMP280;62026;39.230;9.122;2023-07-29T02:58:43;100684.81;;;26.66
67599;BMP280;62026;39.230;9.122;2023-07-29T03:01:10;100681.66;;;26.64
67599;BMP280;62026;39.230;9.122;2023-07-29T03:03:36;100676.38;;;26.67
67599;BMP280;62026;39.230;9.122;2023-07-29T03:08:34;100682.09;;;26.74
67599;BMP280;62026;39.230;9.122;2023-07-29T03:11:14;100678.00;;;26.68
67599;BMP280;62026;39.230;9.122;2023-07-29T03:13:41;100681.22;;;26.62
67599;BMP280;62026;39.230;9.122;2023-07-29T03:16:13;100689.34;;;26.62
67599;BMP280;62026;39.230;9.122;2023-07-29T03:18:44;100694.91;;;26.57
67599;BMP280;62026;39.230;9.122;2023-07-29T03:21:11;100704.00;;;26.61
67599;BMP280;62026;39.230;9.122;2023-07-29T03:23:38;100702.88;;;26.62
67599;BMP280;62026;39.230;9.122;2023-07-29T03:26:04;100706.88;;;26.56
67599;BMP280;62026;39.230;9.122;2023-07-29T03:28:39;100705.13;;;26.51
67599;BMP280;62026;39.230;9.122;2023-07-29T03:31:05;100703.53;;;26.50
67599;BMP280;62026;39.230;9.122;2023-07-29T03:33:32;100701.47;;;26.56
67599;BMP280;62026;39.230;9.122;2023-07-29T03:35:59;100702.22;;;26.56
67599;BMP280;62026;39.230;9.122;2023-07-29T03:38:25;100704.78;;;26.61
67599;BMP280;62026;39.230;9.122;2023-07-29T03:40:51;100705.59;;;26.62
67599;BMP280;62026;39.230;9.122;2023-07-29T03:43:17;100704.63;;;26.58
67599;BMP280;62026;39.230;9.122;2023-07-29T03:45:44;100697.47;;;26.53
67599;BMP280;62026;39.230;9.122;2023-07-29T03:48:10;100707.78;;;26.60
67599;BMP280;62026;39.230;9.122;2023-07-29T03:50:37;100710.25;;;26.53
67599;BMP280;62026;39.230;9.122;2023-07-29T03:53:05;100717.72;;;26.56
67599;BMP280;62026;39.230;9.122;2023-07-29T03:55:32;100732.19;;;26.51
67599;BMP280;62026;39.230;9.122;2023-07-29T03:57:59;100733.16;;;26.47
67599;BMP280;62026;39.230;9.122;2023-07-29T04:00:26;100733.34;;;26.42
67599;BMP280;62026;39.230;9.122;2023-07-29T04:02:53;100732.69;;;26.45
67599;BMP280;62026;39.230;9.122;2023-07-29T04:05:19;100737.97;;;26.41
67599;BMP280;62026;39.230;9.122;2023-07-29T04:07:45;100742.91;;;26.30
67599;BMP280;62026;39.230;9.122;2023-07-29T04:10:12;100746.09;;;26.32
67599;BMP280;62026;39.230;9.122;2023-07-29T04:12:38;100756.28;;;26.35
67599;BMP280;62026;39.230;9.122;2023-07-29T04:15:05;100765.38;;;26.31
67599;BMP280;62026;39.230;9.122;2023-07-29T04:17:31;100763.94;;;26.25
67599;BMP280;62026;39.230;9.122;2023-07-29T04:19:57;100780.34;;;26.20
67599;BMP280;62026;39.230;9.122;2023-07-29T04:22:28;100768.25;;;26.09
67599;BMP280;62026;39.230;9.122;2023-07-29T04:24:54;100771.56;;;26.14
67599;BMP280;62026;39.230;9.122;2023-07-29T04:27:20;100773.00;;;26.20
67599;BMP280;62026;39.230;9.122;2023-07-29T04:29:46;100774.13;;;26.19
67599;BMP280;62026;39.230;9.122;2023-07-29T04:32:12;100774.44;;;26.18
67599;BMP280;62026;39.230;9.122;2023-07-29T04:34:38;100780.53;;;26.23
67599;BMP280;62026;39.230;9.122;2023-07-29T04:37:06;100782.09;;;26.24
67599;BMP280;62026;39.230;9.122;2023-07-29T04:39:32;100786.22;;;26.22
67599;BMP280;62026;39.230;9.122;2023-07-29T04:41:58;100793.22;;;26.14
67599;BMP280;62026;39.230;9.122;2023-07-29T04:44:26;100802.31;;;26.18
67599;BMP280;62026;39.230;9.122;2023-07-29T04:46:52;100803.75;;;26.24
67599;BMP280;62026;39.230;9.122;2023-07-29T04:49:18;100803.09;;;26.27
67599;BMP280;62026;39.230;9.122;2023-07-29T04:51:44;100803.56;;;26.21
67599;BMP280;62026;39.230;9.122;2023-07-29T04:54:10;100802.19;;;26.23
67599;BMP280;62026;39.230;9.122;2023-07-29T04:56:36;100801.97;;;26.28
67599;BMP280;62026;39.230;9.122;2023-07-29T04:59:02;100803.59;;;26.29
67599;BMP280;62026;39.230;9.122;2023-07-29T05:01:28;100799.13;;;26.33
67599;BMP280;62026;39.230;9.122;2023-07-29T05:03:54;100812.66;;;26.33
67599;BMP280;62026;39.230;9.122;2023-07-29T05:06:20;100806.59;;;26.28
67599;BMP280;62026;39.230;9.122;2023-07-29T05:08:46;100805.69;;;26.32
67599;BMP280;62026;39.230;9.122;2023-07-29T05:11:12;100814.91;;;26.31
67599;BMP280;62026;39.230;9.122;2023-07-29T05:13:38;100812.66;;;26.33
67599;BMP280;62026;39.230;9.122;2023-07-29T05:16:04;100810.28;;;26.40
67599;BMP280;62026;39.230;9.122;2023-07-29T05:18:30;100814.25;;;26.52
67599;BMP280;62026;39.230;9.122;2023-07-29T05:20:56;100815.03;;;26.52
67599;BMP280;62026;39.230;9.122;2023-07-29T05:23:22;100821.88;;;26.50
67599;BMP280;62026;39.230;9.122;2023-07-29T05:25:48;100824.25;;;26.60
67599;BMP280;62026;39.230;9.122;2023-07-29T05:28:14;100826.50;;;26.75
67599;BMP280;62026;39.230;9.122;2023-07-29T05:30:40;100828.09;;;26.76
67599;BMP280;62026;39.230;9.122;2023-07-29T05:33:06;100841.94;;;26.74
67599;BMP280;62026;39.230;9.122;2023-07-29T05:35:36;100837.97;;;26.80
67599;BMP280;62026;39.230;9.122;2023-07-29T05:38:02;100835.56;;;26.88
67599;BMP280;62026;39.230;9.122;2023-07-29T05:40:30;100839.06;;;26.88
67599;BMP280;62026;39.230;9.122;2023-07-29T05:42:56;100840.31;;;26.99
67599;BMP280;62026;39.230;9.122;2023-07-29T05:45:23;100843.53;;;27.01
67599;BMP280;62026;39.230;9.122;2023-07-29T05:47:48;100841.91;;;27.00
67599;BMP280;62026;39.230;9.122;2023-07-29T05:50:15;100850.94;;;27.13
67599;BMP280;62026;39.230;9.122;2023-07-29T05:52:41;100860.06;;;27.08
67599;BMP280;62026;39.230;9.122;2023-07-29T05:55:08;100851.44;;;27.15
67599;BMP280;62026;39.230;9.122;2023-07-29T05:57:34;100852.53;;;27.22
67599;BMP280;62026;39.230;9.122;2023-07-29T06:00:00;100856.69;;;27.20
67599;BMP280;62026;39.230;9.122;2023-07-29T06:02:26;100864.97;;;27.23
67599;BMP280;62026;39.230;9.122;2023-07-29T06:04:52;100864.81;;;27.29
67599;BMP280;62026;39.230;9.122;2023-07-29T06:07:18;100867.31;;;27.34
67599;BMP280;62026;39.230;9.122;2023-07-29T06:09:44;100869.88;;;27.39
67599;BMP280;62026;39.230;9.122;2023-07-29T06:12:10;100869.66;;;27.52
67599;BMP280;62026;39.230;9.122;2023-07-29T06:14:36;100874.81;;;27.45
67599;BMP280;62026;39.230;9.122;2023-07-29T06:17:02;100872.91;;;27.66
67599;BMP280;62026;39.230;9.122;2023-07-29T06:19:28;100880.19;;;27.83
67599;BMP280;62026;39.230;9.122;2023-07-29T06:21:55;100882.69;;;27.88
67599;BMP280;62026;39.230;9.122;2023-07-29T06:24:22;100875.69;;;27.87
67599;BMP280;62026;39.230;9.122;2023-07-29T06:26:48;100878.50;;;27.99
67599;BMP280;62026;39.230;9.122;2023-07-29T06:29:14;100874.66;;;28.00
67599;BMP280;62026;39.230;9.122;2023-07-29T06:31:39;100878.78;;;28.06
67599;BMP280;62026;39.230;9.122;2023-07-29T06:34:05;100880.63;;;28.15
67599;BMP280;62026;39.230;9.122;2023-07-29T06:36:31;100873.31;;;28.27
67599;BMP280;62026;39.230;9.122;2023-07-29T06:38:57;100884.84;;;28.24
67599;BMP280;62026;39.230;9.122;2023-07-29T06:41:23;100879.19;;;28.38
67599;BMP280;62026;39.230;9.122;2023-07-29T06:43:49;100886.00;;;28.44
67599;BMP280;62026;39.230;9.122;2023-07-29T06:46:15;100883.81;;;28.58
67599;BMP280;62026;39.230;9.122;2023-07-29T06:48:41;100882.97;;;28.58
67599;BMP280;62026;39.230;9.122;2023-07-29T06:51:07;100895.81;;;28.69
67599;BMP280;62026;39.230;9.122;2023-07-29T06:53:33;100894.31;;;28.92
67599;BMP280;62026;39.230;9.122;2023-07-29T06:55:59;100901.63;;;29.13
67599;BMP280;62026;39.230;9.122;2023-07-29T06:58:25;100904.84;;;29.27
67599;BMP280;62026;39.230;9.122;2023-07-29T07:00:51;100902.31;;;29.34
67599;BMP280;62026;39.230;9.122;2023-07-29T07:03:17;100906.66;;;29.35
67599;BMP280;62026;39.230;9.122;2023-07-29T07:05:43;100903.25;;;29.38
67599;BMP280;62026;39.230;9.122;2023-07-29T07:08:09;100898.59;;;29.38
67599;BMP280;62026;39.230;9.122;2023-07-29T07:10:35;100904.59;;;29.44
67599;BMP280;62026;39.230;9.122;2023-07-29T07:13:01;100908.00;;;29.53
67599;BMP280;62026;39.230;9.122;2023-07-29T07:15:27;100912.91;;;29.60
67599;BMP280;62026;39.230;9.122;2023-07-29T07:17:53;100910.38;;;29.55
67599;BMP280;62026;39.230;9.122;2023-07-29T07:20:19;100927.03;;;29.41
67599;BMP280;62026;39.230;9.122;2023-07-29T07:22:45;100930.22;;;29.43
67599;BMP280;62026;39.230;9.122;2023-07-29T07:25:10;100934.31;;;29.61
67599;BMP280;62026;39.230;9.122;2023-07-29T07:27:37;100927.72;;;29.87
67599;BMP280;62026;39.230;9.122;2023-07-29T07:30:04;100934.16;;;30.06
67599;BMP280;62026;39.230;9.122;2023-07-29T07:32:30;100929.16;;;30.08
67599;BMP280;62026;39.230;9.122;2023-07-29T07:34:56;100930.97;;;30.16
67599;BMP280;62026;39.230;9.122;2023-07-29T07:37:22;100927.00;;;30.14
67599;BMP280;62026;39.230;9.122;2023-07-29T07:39:48;100931.72;;;30.29
67599;BMP280;62026;39.230;9.122;2023-07-29T07:42:14;100932.97;;;30.32
67599;BMP280;62026;39.230;9.122;2023-07-29T07:44:40;100932.78;;;30.52
67599;BMP280;62026;39.230;9.122;2023-07-29T07:47:06;100932.38;;;30.38
67599;BMP280;62026;39.230;9.122;2023-07-29T07:49:32;100933.94;;;30.51
67599;BMP280;62026;39.230;9.122;2023-07-29T07:51:58;100929.72;;;30.54
67599;BMP280;62026;39.230;9.122;2023-07-29T07:54:24;100931.28;;;30.83
67599;BMP280;62026;39.230;9.122;2023-07-29T07:56:49;100930.44;;;30.39
67599;BMP280;62026;39.230;9.122;2023-07-29T07:59:15;100926.84;;;30.62
67599;BMP280;62026;39.230;9.122;2023-07-29T08:01:41;100920.63;;;30.10
67599;BMP280;62026;39.230;9.122;2023-07-29T08:04:07;100915.50;;;30.20
67599;BMP280;62026;39.230;9.122;2023-07-29T08:06:33;100927.00;;;30.14
67599;BMP280;62026;39.230;9.122;2023-07-29T08:08:59;100923.56;;;29.77
67599;BMP280;62026;39.230;9.122;2023-07-29T08:11:26;100929.31;;;30.00
67599;BMP280;62026;39.230;9.122;2023-07-29T08:13:52;100930.88;;;30.13
67599;BMP280;62026;39.230;9.122;2023-07-29T08:16:18;100937.69;;;29.95
67599;BMP280;62026;39.230;9.122;2023-07-29T08:18:44;100931.22;;;29.99
67599;BMP280;62026;39.230;9.122;2023-07-29T08:21:10;100931.28;;;30.15
67599;BMP280;62026;39.230;9.122;2023-07-29T08:23:36;100919.06;;;30.09
67599;BMP280;62026;39.230;9.122;2023-07-29T08:26:05;100919.53;;;29.99
67599;BMP280;62026;39.230;9.122;2023-07-29T08:28:35;100923.06;;;30.39
67599;BMP280;62026;39.230;9.122;2023-07-29T08:31:01;100919.41;;;30.47
67599;BMP280;62026;39.230;9.122;2023-07-29T08:33:28;100927.72;;;30.39
67599;BMP280;62026;39.230;9.122;2023-07-29T08:35:54;100922.75;;;31.00
67599;BMP280;62026;39.230;9.122;2023-07-29T08:38:21;100933.38;;;30.73
67599;BMP280;62026;39.230;9.122;2023-07-29T08:43:44;100933.03;;;30.47
67599;BMP280;62026;39.230;9.122;2023-07-29T08:46:12;100931.22;;;30.51
67599;BMP280;62026;39.230;9.122;2023-07-29T08:48:43;100934.25;;;30.78
67599;BMP280;62026;39.230;9.122;2023-07-29T08:51:10;100937.97;;;31.01
67599;BMP280;62026;39.230;9.122;2023-07-29T08:53:38;100942.84;;;30.24
67599;BMP280;62026;39.230;9.122;2023-07-29T08:56:06;100927.81;;;30.14
67599;BMP280;62026;39.230;9.122;2023-07-29T08:58:33;100931.97;;;30.80
67599;BMP280;62026;39.230;9.122;2023-07-29T09:01:00;100930.25;;;31.03
67599;BMP280;62026;39.230;9.122;2023-07-29T09:03:25;100937.88;;;30.82
67599;BMP280;62026;39.230;9.122;2023-07-29T09:05:54;100931.41;;;30.58
67599;BMP280;62026;39.230;9.122;2023-07-29T09:08:22;100929.09;;;30.60
67599;BMP280;62026;39.230;9.122;2023-07-29T09:10:48;100928.38;;;30.08
67599;BMP280;62026;39.230;9.122;2023-07-29T09:13:15;100931.78;;;29.93
67599;BMP280;62026;39.230;9.122;2023-07-29T09:15:40;100934.63;;;30.08
67599;BMP280;62026;39.230;9.122;2023-07-29T09:18:19;100939.53;;;29.54
67599;BMP280;62026;39.230;9.122;2023-07-29T09:20:50;100939.00;;;30.25
67599;BMP280;62026;39.230;9.122;2023-07-29T09:23:16;100940.72;;;30.57
67599;BMP280;62026;39.230;9.122;2023-07-29T09:25:42;100941.47;;;30.42
67599;BMP280;62026;39.230;9.122;2023-07-29T09:28:11;100940.78;;;30.89
67599;BMP280;62026;39.230;9.122;2023-07-29T09:30:40;100931.84;;;31.04
67599;BMP280;62026;39.230;9.122;2023-07-29T09:33:06;100935.03;;;31.37
67599;BMP280;62026;39.230;9.122;2023-07-29T09:35:35;100924.44;;;30.89
67599;BMP280;62026;39.230;9.122;2023-07-29T09:38:05;100931.72;;;31.16
67599;BMP280;62026;39.230;9.122;2023-07-29T09:40:40;100917.50;;;31.23
67599;BMP280;62026;39.230;9.122;2023-07-29T09:43:08;100926.75;;;31.18
67599;BMP280;62026;39.230;9.122;2023-07-29T09:45:37;100918.19;;;31.51
67599;BMP280;62026;39.230;9.122;2023-07-29T09:48:04;100917.88;;;31.21
67599;BMP280;62026;39.230;9.122;2023-07-29T09:50:35;100918.09;;;31.16
67599;BMP280;62026;39.230;9.122;2023-07-29T09:53:02;100917.41;;;30.88
67599;BMP280;62026;39.230;9.122;2023-07-29T09:55:32;100924.69;;;31.46
67599;BMP280;62026;39.230;9.122;2023-07-29T09:58:02;100923.88;;;30.83
67599;BMP280;62026;39.230;9.122;2023-07-29T10:00:33;100924.69;;;30.56
67599;BMP280;62026;39.230;9.122;2023-07-29T10:03:00;100921.72;;;30.61
67599;BMP280;62026;39.230;9.122;2023-07-29T10:05:27;100920.72;;;30.97
67599;BMP280;62026;39.230;9.122;2023-07-29T10:07:55;100926.56;;;31.42
67599;BMP280;62026;39.230;9.122;2023-07-29T10:10:22;100922.16;;;30.63
67599;BMP280;62026;39.230;9.122;2023-07-29T10:12:49;100922.88;;;31.35
67599;BMP280;62026;39.230;9.122;2023-07-29T10:15:15;100916.59;;;31.50
67599;BMP280;62026;39.230;9.122;2023-07-29T10:17:42;100922.69;;;31.12
67599;BMP280;62026;39.230;9.122;2023-07-29T10:20:10;100917.50;;;31.23
67599;BMP280;62026;39.230;9.122;2023-07-29T10:22:42;100917.94;;;31.40
67599;BMP280;62026;39.230;9.122;2023-07-29T10:25:16;100926.72;;;31.49
67599;BMP280;62026;39.230;9.122;2023-07-29T10:27:53;100922.03;;;30.71
67599;BMP280;62026;39.230;9.122;2023-07-29T10:30:21;100925.94;;;30.58
67599;BMP280;62026;39.230;9.122;2023-07-29T10:32:49;100937.22;;;31.32
67599;BMP280;62026;39.230;9.122;2023-07-29T10:35:16;100929.22;;;30.36
67599;BMP280;62026;39.230;9.122;2023-07-29T10:37:42;100920.59;;;30.78
67599;BMP280;62026;39.230;9.122;2023-07-29T10:40:11;100920.97;;;30.76
67599;BMP280;62026;39.230;9.122;2023-07-29T10:42:38;100947.06;;;30.61
67599;BMP280;62026;39.230;9.122;2023-07-29T10:45:20;100949.59;;;30.54
67599;BMP280;62026;39.230;9.122;2023-07-29T10:47:47;100932.47;;;30.14
67599;BMP280;62026;39.230;9.122;2023-07-29T10:50:21;100928.06;;;29.97
67599;BMP280;62026;39.230;9.122;2023-07-29T10:52:52;100918.84;;;30.14
67599;BMP280;62026;39.230;9.122;2023-07-29T10:55:34;100928.81;;;30.22
67599;BMP280;62026;39.230;9.122;2023-07-29T10:58:13;100919.97;;;30.13
67599;BMP280;62026;39.230;9.122;2023-07-29T11:00:43;100918.47;;;30.15
67599;BMP280;62026;39.230;9.122;2023-07-29T11:03:10;100922.69;;;30.01
67599;BMP280;62026;39.230;9.122;2023-07-29T11:06:06;100923.88;;;29.88
67599;BMP280;62026;39.230;9.122;2023-07-29T11:08:32;100912.38;;;30.06
67599;BMP280;62026;39.230;9.122;2023-07-29T11:11:11;100912.94;;;30.12
67599;BMP280;62026;39.230;9.122;2023-07-29T11:13:38;100911.28;;;30.35
67599;BMP280;62026;39.230;9.122;2023-07-29T11:16:06;100909.72;;;30.34
67599;BMP280;62026;39.230;9.122;2023-07-29T11:18:34;100901.75;;;30.29
67599;BMP280;62026;39.230;9.122;2023-07-29T11:21:03;100897.41;;;30.40
67599;BMP280;62026;39.230;9.122;2023-07-29T11:23:34;100905.06;;;30.22
67599;BMP280;62026;39.230;9.122;2023-07-29T11:26:01;100906.97;;;30.34
67599;BMP280;62026;39.230;9.122;2023-07-29T11:28:28;100904.94;;;30.31
67599;BMP280;62026;39.230;9.122;2023-07-29T11:30:56;100909.06;;;30.41
67599;BMP280;62026;39.230;9.122;2023-07-29T11:33:25;100904.72;;;30.24
67599;BMP280;62026;39.230;9.122;2023-07-29T11:35:52;100912.16;;;30.39
67599;BMP280;62026;39.230;9.122;2023-07-29T11:38:20;100907.66;;;30.31
67599;BMP280;62026;39.230;9.122;2023-07-29T11:41:01;100902.03;;;30.12
67599;BMP280;62026;39.230;9.122;2023-07-29T11:43:29;100899.31;;;30.12
67599;BMP280;62026;39.230;9.122;2023-07-29T11:45:55;100898.25;;;29.89
67599;BMP280;62026;39.230;9.122;2023-07-29T11:48:33;100895.41;;;30.25
67599;BMP280;62026;39.230;9.122;2023-07-29T11:51:00;100894.59;;;29.97
67599;BMP280;62026;39.230;9.122;2023-07-29T11:53:29;100901.97;;;29.96
67599;BMP280;62026;39.230;9.122;2023-07-29T11:55:56;100884.63;;;29.89
67599;BMP280;62026;39.230;9.122;2023-07-29T11:58:23;100891.44;;;29.70
67599;BMP280;62026;39.230;9.122;2023-07-29T12:00:49;100882.72;;;29.77
67599;BMP280;62026;39.230;9.122;2023-07-29T12:03:17;100870.78;;;29.69
67599;BMP280;62026;39.230;9.122;2023-07-29T12:05:44;100870.00;;;29.81
67599;BMP280;62026;39.230;9.122;2023-07-29T12:08:11;100877.81;;;29.70
67599;BMP280;62026;39.230;9.122;2023-07-29T12:10:37;100887.34;;;29.64
67599;BMP280;62026;39.230;9.122;2023-07-29T12:13:03;100865.81;;;29.47
67599;BMP280;62026;39.230;9.122;2023-07-29T12:15:30;100870.22;;;29.64
67599;BMP280;62026;39.230;9.122;2023-07-29T12:17:57;100882.38;;;29.66
67599;BMP280;62026;39.230;9.122;2023-07-29T12:20:24;100867.53;;;29.52
67599;BMP280;62026;39.230;9.122;2023-07-29T12:22:55;100877.84;;;29.46
67599;BMP280;62026;39.230;9.122;2023-07-29T12:25:22;100865.13;;;29.62
67599;BMP280;62026;39.230;9.122;2023-07-29T12:27:48;100865.56;;;29.64
67599;BMP280;62026;39.230;9.122;2023-07-29T12:30:14;100867.41;;;29.48
67599;BMP280;62026;39.230;9.122;2023-07-29T12:32:45;100870.81;;;29.57
67599;BMP280;62026;39.230;9.122;2023-07-29T12:35:12;100868.09;;;29.45
67599;BMP280;62026;39.230;9.122;2023-07-29T12:37:38;100879.44;;;29.59
67599;BMP280;62026;39.230;9.122;2023-07-29T12:40:28;100874.19;;;29.54
67599;BMP280;62026;39.230;9.122;2023-07-29T12:42:55;100853.59;;;29.29
67599;BMP280;62026;39.230;9.122;2023-07-29T12:45:22;100869.47;;;29.39
67599;BMP280;62026;39.230;9.122;2023-07-29T12:47:56;100861.28;;;29.39
67599;BMP280;62026;39.230;9.122;2023-07-29T12:50:22;100855.50;;;29.53
67599;BMP280;62026;39.230;9.122;2023-07-29T12:52:48;100852.34;;;29.51
67599;BMP280;62026;39.230;9.122;2023-07-29T12:55:14;100857.41;;;29.40
67599;BMP280;62026;39.230;9.122;2023-07-29T12:57:42;100864.03;;;29.39
67599;BMP280;62026;39.230;9.122;2023-07-29T13:00:10;100854.69;;;29.40
67599;BMP280;62026;39.230;9.122;2023-07-29T13:02:36;100861.88;;;29.45
67599;BMP280;62026;39.230;9.122;2023-07-29T13:05:02;100854.84;;;29.44
67599;BMP280;62026;39.230;9.122;2023-07-29T13:07:28;100840.97;;;29.49
67599;BMP280;62026;39.230;9.122;2023-07-29T13:09:54;100840.91;;;29.45
67599;BMP280;62026;39.230;9.122;2023-07-29T13:12:20;100848.94;;;29.42
67599;BMP280;62026;39.230;9.122;2023-07-29T13:14:46;100845.31;;;29.37
67599;BMP280;62026;39.230;9.122;2023-07-29T13:17:12;100845.97;;;29.59
67599;BMP280;62026;39.230;9.122;2023-07-29T13:19:38;100853.34;;;29.22
67599;BMP280;62026;39.230;9.122;2023-07-29T13:22:04;100829.09;;;29.29
67599;BMP280;62026;39.230;9.122;2023-07-29T13:24:30;100830.00;;;29.45
67599;BMP280;62026;39.230;9.122;2023-07-29T13:26:58;100836.91;;;29.67
67599;BMP280;62026;39.230;9.122;2023-07-29T13:29:24;100830.44;;;29.59
67599;BMP280;62026;39.230;9.122;2023-07-29T13:31:49;100836.31;;;29.25
67599;BMP280;62026;39.230;9.122;2023-07-29T13:34:15;100832.16;;;29.15
67599;BMP280;62026;39.230;9.122;2023-07-29T13:36:41;100832.47;;;29.02
67599;BMP280;62026;39.230;9.122;2023-07-29T13:39:07;100831.34;;;29.03
67599;BMP280;62026;39.230;9.122;2023-07-29T13:41:33;100821.72;;;29.05
67599;BMP280;62026;39.230;9.122;2023-07-29T13:43:59;100822.28;;;28.99
67599;BMP280;62026;39.230;9.122;2023-07-29T13:46:25;100830.22;;;29.28
67599;BMP280;62026;39.230;9.122;2023-07-29T13:48:51;100836.34;;;29.01
67599;BMP280;62026;39.230;9.122;2023-07-29T13:51:17;100819.13;;;28.97
67599;BMP280;62026;39.230;9.122;2023-07-29T13:53:43;100820.56;;;28.94
67599;BMP280;62026;39.230;9.122;2023-07-29T13:56:09;100832.72;;;29.09
67599;BMP280;62026;39.230;9.122;2023-07-29T13:58:35;100825.09;;;29.02
67599;BMP280;62026;39.230;9.122;2023-07-29T14:01:00;100816.06;;;28.98
67599;BMP280;62026;39.230;9.122;2023-07-29T14:03:26;100813.00;;;29.12
67599;BMP280;62026;39.230;9.122;2023-07-29T14:05:52;100819.44;;;29.31
67599;BMP280;62026;39.230;9.122;2023-07-29T14:08:18;100813.91;;;29.04
67599;BMP280;62026;39.230;9.122;2023-07-29T14:10:44;100819.13;;;29.21